Terminal Aerodrome Forecast
Issued by NWS Buffalo, NY

Home | Current Version | Previous Version | Text Only | Print | Product List | Glossary On
Versions: 1 2 3 4 5 6 7 8 9 10 11 12 13 14 15 16 17 18 19 20 21 22 23 24 25 26 27 28
693
FTUS41 KBUF 272107 AAA
TAFROC
TAF AMD
KROC 272107Z 2721/2818 26014G20KT P6SM SCT015 BKN050
     FM272300 25008KT P6SM BKN050
     FM280400 VRB03KT P6SM BKN035
     FM280900 VRB03KT P6SM VCSH OVC035
     FM281200 VRB03KT 2SM -SHRA BR OVC007
     FM281700 33006KT P6SM VCSH OVC012=

USA.gov is the U.S. government's official web portal to all federal, state and local government web resources and services.